Time;durP1;ratioP1;P1;durP2;ratioP2;P2;SDS_P1;SDS_P2;PMS_P1;PMS_P2;Temp;Humidity;BMP_temperature;BMP_pressure;BME280_temperature;BME280_humidity;BME280_pressure;Samples;Min_cycle;Max_cycle;Signal;HPM_P1;HPM_P2
2022/10/25 00:00:49;;;;;;;12.32;6.97;;;;;;;;;;5012341;28;20402;-48
2022/10/25 00:03:19;;;;;;;13.55;6.68;;;;;;;;;;5002270;28;20471;-49
2022/10/25 00:05:46;;;;;;;11.63;6.03;;;;;;;;;;5006003;28;20045;-51
2022/10/25 00:08:14;;;;;;;12.02;5.90;;;;;;;;;;5012784;28;20180;-47
2022/10/25 00:10:41;;;;;;;14.15;6.53;;;;;;;;;;5032356;28;20060;-48
2022/10/25 00:13:11;;;;;;;11.57;6.78;;;;;;;;;;5018090;28;20054;-47
2022/10/25 00:15:41;;;;;;;12.88;6.65;;;;;;;;;;5012275;28;20567;-47
2022/10/25 00:18:07;;;;;;;14.52;7.25;;;;;;;;;;5012340;28;20061;-49
2022/10/25 00:20:35;;;;;;;12.02;6.55;;;;;;;;;;5028871;28;20060;-49
2022/10/25 00:23:03;;;;;;;13.35;6.90;;;;;;;;;;5009518;28;20693;-48
2022/10/25 00:25:32;;;;;;;12.25;6.53;;;;;;;;;;5014657;28;20057;-47
2022/10/25 00:28:02;;;;;;;12.02;6.18;;;;;;;;;;5014688;28;20081;-47
2022/10/25 00:30:46;;;;;;;12.85;6.47;;;;;;;;;;5013950;28;20086;-48
2022/10/25 00:33:16;;;;;;;10.57;5.95;;;;;;;;;;5012478;28;20396;-48
2022/10/25 00:35:46;;;;;;;14.38;6.72;;;;;;;;;;5021561;28;20486;-48
2022/10/25 00:38:14;;;;;;;12.95;6.47;;;;;;;;;;5018187;28;20143;-47
2022/10/25 00:40:43;;;;;;;11.90;6.13;;;;;;;;;;5012482;28;20045;-49
2022/10/25 00:43:11;;;;;;;13.15;6.90;;;;;;;;;;5012306;28;20134;-47
2022/10/25 00:45:43;;;;;;;13.52;6.80;;;;;;;;;;5018684;28;20128;-47
2022/10/25 00:48:12;;;;;;;13.80;6.28;;;;;;;;;;5019174;28;20482;-47
2022/10/25 00:50:45;;;;;;;11.75;6.57;;;;;;;;;;5026287;28;20064;-48
2022/10/25 00:53:15;;;;;;;12.30;6.20;;;;;;;;;;5015034;28;20054;-47
2022/10/25 00:55:46;;;;;;;11.75;5.43;;;;;;;;;;5012326;28;20050;-48
2022/10/25 00:58:22;;;;;;;14.20;6.07;;;;;;;;;;5012502;28;20053;-47
2022/10/25 01:01:00;;;;;;;12.45;6.35;;;;;;;;;;5011221;28;20049;-50
2022/10/25 01:03:27;;;;;;;10.55;5.75;;;;;;;;;;5012255;28;20081;-48
2022/10/25 01:05:57;;;;;;;10.90;5.82;;;;;;;;;;5006339;28;20069;-48
2022/10/25 01:08:27;;;;;;;9.48;5.53;;;;;;;;;;5007075;28;20057;-47
2022/10/25 01:10:57;;;;;;;11.15;5.38;;;;;;;;;;5001989;28;20057;-47
2022/10/25 01:13:27;;;;;;;10.52;6.22;;;;;;;;;;5002933;28;20061;-48
2022/10/25 01:16:10;;;;;;;13.52;6.35;;;;;;;;;;5012210;28;20547;-49
2022/10/25 01:18:43;;;;;;;10.18;6.03;;;;;;;;;;5011455;28;20050;-47
2022/10/25 01:21:38;;;;;;;11.00;5.65;;;;;;;;;;5002375;28;20050;-48
2022/10/25 01:24:14;;;;;;;9.27;5.30;;;;;;;;;;5011617;28;20490;-47
2022/10/25 01:26:58;;;;;;;12.15;5.45;;;;;;;;;;4999149;28;20046;-46
2022/10/25 01:29:35;;;;;;;12.65;5.85;;;;;;;;;;5003809;28;20051;-48
2022/10/25 01:32:19;;;;;;;12.35;5.20;;;;;;;;;;5011952;28;20494;-48
2022/10/25 01:34:54;;;;;;;13.68;6.00;;;;;;;;;;5012638;28;20522;-48
2022/10/25 01:37:27;;;;;;;13.30;5.47;;;;;;;;;;5014867;28;20060;-47
2022/10/25 01:40:05;;;;;;;8.30;5.45;;;;;;;;;;5014832;28;20053;-48
2022/10/25 01:42:42;;;;;;;7.88;4.78;;;;;;;;;;5026338;28;20061;-47
2022/10/25 01:45:13;;;;;;;8.77;4.53;;;;;;;;;;5009368;28;20129;-48
2022/10/25 01:47:44;;;;;;;12.48;5.70;;;;;;;;;;5007194;28;20102;-47
2022/10/25 01:50:14;;;;;;;11.45;4.72;;;;;;;;;;5028461;28;20447;-48
2022/10/25 01:52:42;;;;;;;12.50;5.45;;;;;;;;;;5014875;28;20046;-45
2022/10/25 01:55:12;;;;;;;9.73;5.45;;;;;;;;;;5014524;28;20053;-48
2022/10/25 01:57:47;;;;;;;10.80;5.65;;;;;;;;;;5014771;28;20056;-47
2022/10/25 02:00:16;;;;;;;;;;;;;;;;;;5006161;28;20049;-47
2022/10/25 02:03:04;;;;;;;8.55;4.63;;;;;;;;;;5034898;28;19956;-46
2022/10/25 02:05:40;;;;;;;9.70;4.88;;;;;;;;;;5009469;28;20049;-46
2022/10/25 02:08:12;;;;;;;9.80;5.05;;;;;;;;;;5015760;28;20050;-45
2022/10/25 02:10:40;;;;;;;10.82;4.90;;;;;;;;;;5014465;28;20482;-47
2022/10/25 02:13:12;;;;;;;8.93;5.40;;;;;;;;;;4999428;28;20057;-46
2022/10/25 02:15:41;;;;;;;8.55;4.18;;;;;;;;;;4998700;28;20046;-46
2022/10/25 02:18:11;;;;;;;11.63;5.78;;;;;;;;;;5007735;28;20380;-47
2022/10/25 02:20:45;;;;;;;10.02;5.22;;;;;;;;;;4995686;28;20412;-46
2022/10/25 02:23:16;;;;;;;9.63;4.57;;;;;;;;;;5000811;28;20084;-47
2022/10/25 02:25:43;;;;;;;8.05;4.75;;;;;;;;;;5015863;28;20086;-48
2022/10/25 02:28:14;;;;;;;12.10;5.55;;;;;;;;;;5011049;28;20049;-49
2022/10/25 02:30:43;;;;;;;12.07;5.93;;;;;;;;;;4997404;28;20066;-47
2022/10/25 02:33:19;;;;;;;11.73;5.55;;;;;;;;;;5012252;28;20709;-47
2022/10/25 02:36:12;;;;;;;9.93;5.43;;;;;;;;;;5014611;28;20060;-48
2022/10/25 02:38:40;;;;;;;10.18;4.70;;;;;;;;;;5002055;28;20462;-46
2022/10/25 02:41:11;;;;;;;10.23;5.25;;;;;;;;;;5008131;28;20054;-50
2022/10/25 02:43:44;;;;;;;11.02;4.18;;;;;;;;;;5010163;28;20081;-46
2022/10/25 02:46:13;;;;;;;7.93;4.30;;;;;;;;;;5002998;28;20057;-47
2022/10/25 02:48:50;;;;;;;10.82;5.05;;;;;;;;;;5010919;28;20073;-47
2022/10/25 02:51:21;;;;;;;10.10;4.80;;;;;;;;;;5014604;28;20062;-46
2022/10/25 02:53:56;;;;;;;11.82;5.30;;;;;;;;;;5012401;28;20052;-46
2022/10/25 02:56:23;;;;;;;9.97;5.57;;;;;;;;;;5010894;28;20057;-46
2022/10/25 02:58:51;;;;;;;11.63;5.50;;;;;;;;;;5010248;28;20422;-46
2022/10/25 03:01:21;;;;;;;10.30;5.90;;;;;;;;;;5014025;28;20060;-47
2022/10/25 03:03:49;;;;;;;9.68;4.80;;;;;;;;;;5013331;28;20136;-48
2022/10/25 03:06:16;;;;;;;8.93;5.20;;;;;;;;;;5014083;28;20060;-48
2022/10/25 03:08:45;;;;;;;9.82;5.68;;;;;;;;;;5008551;28;20356;-46
2022/10/25 03:11:16;;;;;;;9.75;5.68;;;;;;;;;;5013643;28;20497;-49
2022/10/25 03:13:46;;;;;;;12.82;5.78;;;;;;;;;;5012989;28;20185;-45
2022/10/25 03:16:15;;;;;;;9.68;5.30;;;;;;;;;;5013782;28;20056;-46
2022/10/25 03:18:43;;;;;;;15.85;6.28;;;;;;;;;;5013625;28;20617;-50
2022/10/25 03:21:09;;;;;;;19.60;9.20;;;;;;;;;;4994753;28;20068;-46
2022/10/25 03:23:39;;;;;;;38.50;18.00;;;;;;;;;;5004893;28;20053;-46
2022/10/25 03:26:07;;;;;;;28.50;12.90;;;;;;;;;;4999730;28;20054;-46
2022/10/25 03:28:48;;;;;;;18.27;8.77;;;;;;;;;;5013740;28;20144;-47
2022/10/25 03:31:16;;;;;;;15.27;6.30;;;;;;;;;;5002893;28;20065;-46
2022/10/25 03:33:44;;;;;;;8.88;5.45;;;;;;;;;;5020781;28;20064;-48
2022/10/25 03:36:12;;;;;;;9.93;4.57;;;;;;;;;;5012696;28;20482;-46
2022/10/25 03:38:42;;;;;;;10.70;4.65;;;;;;;;;;5013433;28;20049;-45
2022/10/25 03:41:11;;;;;;;11.45;6.35;;;;;;;;;;5006408;28;20627;-47
2022/10/25 03:43:40;;;;;;;16.65;7.97;;;;;;;;;;4997484;28;20107;-47
2022/10/25 03:46:07;;;;;;;14.68;6.63;;;;;;;;;;5011884;28;20048;-45
2022/10/25 03:48:50;;;;;;;11.82;6.38;;;;;;;;;;5013009;28;20052;-47
2022/10/25 03:51:17;;;;;;;14.73;6.35;;;;;;;;;;5013335;28;20052;-47
2022/10/25 03:53:47;;;;;;;9.23;5.30;;;;;;;;;;5020169;28;20057;-47
2022/10/25 03:56:15;;;;;;;39.75;8.45;;;;;;;;;;4999985;28;20072;-50
2022/10/25 03:58:55;;;;;;;44.45;9.23;;;;;;;;;;5010567;28;20121;-47
2022/10/25 04:01:25;;;;;;;12.68;6.50;;;;;;;;;;5001054;28;20060;-46
2022/10/25 04:03:52;;;;;;;14.40;6.20;;;;;;;;;;5011755;28;20077;-45
2022/10/25 04:06:22;;;;;;;11.43;5.55;;;;;;;;;;5012660;28;20050;-47
2022/10/25 04:08:52;;;;;;;12.13;5.85;;;;;;;;;;5008664;28;20087;-45
2022/10/25 04:11:19;;;;;;;10.60;5.57;;;;;;;;;;5003335;28;20129;-45
2022/10/25 04:13:56;;;;;;;14.05;5.75;;;;;;;;;;5012072;28;20057;-45
2022/10/25 04:16:25;;;;;;;12.50;6.32;;;;;;;;;;5002930;28;20046;-46
2022/10/25 04:19:01;;;;;;;10.57;6.22;;;;;;;;;;5012380;28;20058;-47
2022/10/25 04:21:30;;;;;;;10.32;5.72;;;;;;;;;;4992974;28;20054;-45
2022/10/25 04:24:00;;;;;;;10.43;6.20;;;;;;;;;;4993553;28;20066;-47
2022/10/25 04:26:30;;;;;;;12.30;6.90;;;;;;;;;;4999120;28;20053;-46
2022/10/25 04:29:14;;;;;;;12.38;5.72;;;;;;;;;;4999748;28;20050;-46
2022/10/25 04:31:45;;;;;;;9.00;6.03;;;;;;;;;;4998911;28;20056;-45
2022/10/25 04:34:11;;;;;;;12.05;5.80;;;;;;;;;;5025479;28;20300;-46
2022/10/25 04:36:41;;;;;;;11.10;6.13;;;;;;;;;;5012950;28;20053;-46
2022/10/25 04:39:17;;;;;;;11.70;6.90;;;;;;;;;;5012719;28;20058;-48
2022/10/25 04:41:44;;;;;;;11.18;5.82;;;;;;;;;;5011955;28;20455;-49
2022/10/25 04:44:17;;;;;;;11.90;5.95;;;;;;;;;;5007495;28;20135;-46
2022/10/25 04:46:45;;;;;;;10.80;5.43;;;;;;;;;;5008769;28;20150;-50
2022/10/25 04:49:14;;;;;;;13.13;6.43;;;;;;;;;;4992724;28;20054;-47
2022/10/25 04:51:45;;;;;;;13.93;6.28;;;;;;;;;;5011824;28;20070;-47
2022/10/25 04:54:15;;;;;;;10.82;5.38;;;;;;;;;;5007663;28;20090;-48
2022/10/25 04:56:43;;;;;;;10.32;6.05;;;;;;;;;;5008280;28;20068;-45
2022/10/25 04:59:24;;;;;;;8.55;5.40;;;;;;;;;;5011944;28;20459;-47
2022/10/25 05:01:50;;;;;;;10.25;6.13;;;;;;;;;;5012171;28;20079;-47
2022/10/25 05:04:20;;;;;;;10.43;5.55;;;;;;;;;;5004154;28;20055;-46
2022/10/25 05:06:47;;;;;;;10.07;5.07;;;;;;;;;;4993093;28;20345;-47
2022/10/25 05:09:27;;;;;;;9.60;5.45;;;;;;;;;;5013109;28;20053;-46
2022/10/25 05:11:57;;;;;;;9.60;6.22;;;;;;;;;;5015939;28;20145;-46
2022/10/25 05:14:38;;;;;;;10.43;5.70;;;;;;;;;;5015902;28;20050;-48
2022/10/25 05:17:08;;;;;;;12.57;5.80;;;;;;;;;;5015061;28;20046;-46
2022/10/25 05:19:38;;;;;;;10.32;5.55;;;;;;;;;;5008584;28;20061;-45
2022/10/25 05:22:08;;;;;;;9.80;5.53;;;;;;;;;;4995698;28;20616;-45
2022/10/25 05:24:36;;;;;;;13.93;5.82;;;;;;;;;;5008866;28;20050;-46
2022/10/25 05:27:06;;;;;;;10.15;5.88;;;;;;;;;;5015026;28;20049;-46
2022/10/25 05:29:35;;;;;;;12.10;5.65;;;;;;;;;;5002818;28;20080;-47
2022/10/25 05:32:03;;;;;;;13.02;6.28;;;;;;;;;;5015313;28;20053;-50
2022/10/25 05:34:33;;;;;;;9.57;5.68;;;;;;;;;;5015589;28;20061;-46
2022/10/25 05:37:03;;;;;;;13.93;6.55;;;;;;;;;;5013271;28;20050;-46
2022/10/25 05:39:33;;;;;;;11.98;5.78;;;;;;;;;;5014864;28;20470;-48
2022/10/25 05:42:05;;;;;;;12.25;6.03;;;;;;;;;;5014722;28;20053;-45
2022/10/25 05:44:33;;;;;;;9.88;5.38;;;;;;;;;;5020421;28;20054;-46
2022/10/25 05:47:08;;;;;;;9.63;5.82;;;;;;;;;;5012475;28;20056;-47
2022/10/25 05:49:38;;;;;;;18.85;8.93;;;;;;;;;;5026367;28;20053;-47
2022/10/25 05:52:09;;;;;;;9.32;5.53;;;;;;;;;;5015310;28;20054;-47
2022/10/25 05:54:37;;;;;;;13.02;6.07;;;;;;;;;;5010733;28;20065;-47
2022/10/25 05:57:06;;;;;;;11.02;6.15;;;;;;;;;;5015265;28;20060;-48
2022/10/25 05:59:36;;;;;;;11.55;5.63;;;;;;;;;;5022129;28;20474;-47
2022/10/25 06:02:07;;;;;;;12.98;5.80;;;;;;;;;;5014308;28;20119;-46
2022/10/25 06:04:37;;;;;;;10.00;5.22;;;;;;;;;;5032132;28;20156;-46
2022/10/25 06:07:03;;;;;;;9.48;5.55;;;;;;;;;;5006798;28;20049;-47
2022/10/25 06:09:33;;;;;;;10.57;5.93;;;;;;;;;;5003004;28;20065;-47
2022/10/25 06:12:00;;;;;;;11.63;5.93;;;;;;;;;;5014798;28;20050;-46
2022/10/25 06:14:37;;;;;;;10.93;5.50;;;;;;;;;;4998477;28;20054;-46
2022/10/25 06:17:14;;;;;;;12.18;6.32;;;;;;;;;;4995030;28;20053;-47
2022/10/25 06:19:44;;;;;;;11.52;5.75;;;;;;;;;;5005332;28;20053;-47
2022/10/25 06:22:14;;;;;;;11.02;6.35;;;;;;;;;;5014018;28;20073;-49
2022/10/25 06:24:42;;;;;;;14.18;6.07;;;;;;;;;;4995842;28;20505;-48
2022/10/25 06:27:10;;;;;;;11.80;5.82;;;;;;;;;;5011813;28;20046;-47
2022/10/25 06:29:37;;;;;;;11.60;5.93;;;;;;;;;;5014973;28;20049;-48
2022/10/25 06:32:12;;;;;;;9.57;5.22;;;;;;;;;;5014377;28;20057;-50
2022/10/25 06:34:39;;;;;;;11.90;5.43;;;;;;;;;;5013252;28;20058;-47
2022/10/25 06:37:08;;;;;;;21.98;6.93;;;;;;;;;;5021770;28;20478;-50
2022/10/25 06:39:37;;;;;;;10.60;6.93;;;;;;;;;;5008870;28;20431;-49
2022/10/25 06:42:04;;;;;;;15.20;8.32;;;;;;;;;;5011252;28;20057;-48
2022/10/25 06:44:32;;;;;;;12.00;6.82;;;;;;;;;;5012655;28;20053;-51
2022/10/25 06:46:59;;;;;;;10.88;6.30;;;;;;;;;;5014154;28;20494;-51
2022/10/25 06:49:27;;;;;;;12.02;7.35;;;;;;;;;;4994110;28;20145;-50
2022/10/25 06:51:54;;;;;;;13.65;6.70;;;;;;;;;;5008610;28;20053;-49
2022/10/25 06:54:20;;;;;;;10.20;5.90;;;;;;;;;;5010523;28;20052;-50
2022/10/25 06:56:48;;;;;;;12.23;6.22;;;;;;;;;;5006398;28;20072;-50
2022/10/25 06:59:16;;;;;;;10.15;5.80;;;;;;;;;;5005292;28;20458;-49
2022/10/25 07:01:45;;;;;;;10.63;5.78;;;;;;;;;;4999321;28;20061;-49
2022/10/25 07:04:13;;;;;;;9.20;5.50;;;;;;;;;;5007002;28;20467;-46
2022/10/25 07:06:46;;;;;;;9.52;4.50;;;;;;;;;;5011455;28;20046;-50
2022/10/25 07:09:14;;;;;;;12.18;5.25;;;;;;;;;;5014252;28;20045;-48
2022/10/25 07:14:23;;;;;;;8.15;4.80;;;;;;;;;;5005159;28;20046;-45
2022/10/25 07:16:51;;;;;;;9.18;4.97;;;;;;;;;;5007526;28;20057;-46
2022/10/25 07:19:17;;;;;;;8.77;3.92;;;;;;;;;;5012542;28;20061;-46
2022/10/25 07:21:54;;;;;;;10.02;4.88;;;;;;;;;;4999655;28;20501;-46
2022/10/25 07:24:24;;;;;;;9.25;4.43;;;;;;;;;;5012530;28;20046;-46
2022/10/25 07:26:54;;;;;;;9.73;4.30;;;;;;;;;;5012547;28;20099;-49
2022/10/25 07:29:24;;;;;;;10.50;4.13;;;;;;;;;;5012716;28;20054;-48
2022/10/25 07:31:51;;;;;;;9.05;3.97;;;;;;;;;;4997900;28;20042;-46
2022/10/25 07:34:21;;;;;;;8.35;3.97;;;;;;;;;;5012427;28;20050;-47
2022/10/25 07:37:05;;;;;;;14.15;3.85;;;;;;;;;;5004727;28;20060;-48
2022/10/25 07:39:46;;;;;;;7.38;3.35;;;;;;;;;;5011031;28;20045;-47
2022/10/25 07:44:57;;;;;;;10.48;3.35;;;;;;;;;;5013080;28;20081;-47
2022/10/25 07:47:26;;;;;;;7.82;3.85;;;;;;;;;;5008941;28;20053;-47
2022/10/25 07:49:56;;;;;;;6.90;3.33;;;;;;;;;;5009476;28;20116;-46
2022/10/25 07:52:38;;;;;;;7.13;3.50;;;;;;;;;;5003409;28;20050;-46
2022/10/25 07:55:13;;;;;;;7.03;3.05;;;;;;;;;;5010906;28;20061;-45
2022/10/25 07:57:40;;;;;;;7.47;3.03;;;;;;;;;;5000080;28;20058;-46
2022/10/25 08:00:17;;;;;;;5.53;2.20;;;;;;;;;;5004950;28;20638;-47
2022/10/25 08:02:45;;;;;;;6.30;2.50;;;;;;;;;;5012478;28;20086;-46
2022/10/25 08:05:13;;;;;;;6.72;3.17;;;;;;;;;;5011798;28;20049;-46
2022/10/25 08:10:23;;;;;;;4.20;2.20;;;;;;;;;;5005338;28;20473;-46
2022/10/25 08:12:50;;;;;;;5.60;2.38;;;;;;;;;;5017095;28;20485;-45
2022/10/25 08:15:20;;;;;;;7.93;2.38;;;;;;;;;;5007643;28;20054;-47
2022/10/25 08:17:49;;;;;;;4.85;1.90;;;;;;;;;;5000527;28;20078;-52
2022/10/25 08:20:19;;;;;;;5.50;2.17;;;;;;;;;;5006719;28;20049;-51
2022/10/25 08:22:47;;;;;;;8.18;2.60;;;;;;;;;;5000686;28;20060;-50
2022/10/25 08:25:27;;;;;;;6.25;2.30;;;;;;;;;;5009521;28;20514;-47
2022/10/25 08:27:57;;;;;;;8.15;2.90;;;;;;;;;;5003627;28;20041;-49
2022/10/25 08:30:27;;;;;;;6.15;1.98;;;;;;;;;;4999918;28;20049;-50
2022/10/25 08:32:54;;;;;;;4.78;1.92;;;;;;;;;;5007912;28;20049;-52
2022/10/25 08:35:24;;;;;;;4.47;2.10;;;;;;;;;;5008586;28;20064;-49
2022/10/25 08:37:54;;;;;;;6.13;2.30;;;;;;;;;;5005163;28;20061;-50
2022/10/25 08:40:25;;;;;;;7.28;2.30;;;;;;;;;;5004772;28;20042;-48
2022/10/25 08:43:07;;;;;;;7.03;2.10;;;;;;;;;;5007466;28;20062;-50
2022/10/25 08:45:37;;;;;;;6.55;2.30;;;;;;;;;;5011077;28;20051;-48
2022/10/25 08:48:06;;;;;;;7.22;2.00;;;;;;;;;;5013116;28;20061;-48
2022/10/25 08:50:39;;;;;;;5.30;2.28;;;;;;;;;;5016825;28;20053;-46
2022/10/25 08:53:30;;;;;;;6.18;2.67;;;;;;;;;;5010952;28;20046;-46
2022/10/25 08:56:00;;;;;;;3.72;1.77;;;;;;;;;;5009394;28;20051;-46
2022/10/25 08:58:32;;;;;;;9.30;2.25;;;;;;;;;;5007943;28;20046;-47
2022/10/25 09:01:08;;;;;;;4.47;2.20;;;;;;;;;;5006669;28;20054;-47
2022/10/25 09:03:42;;;;;;;6.05;2.35;;;;;;;;;;5005610;28;20054;-47
2022/10/25 09:06:16;;;;;;;6.47;2.00;;;;;;;;;;5003313;28;20463;-48
2022/10/25 09:08:56;;;;;;;3.30;1.70;;;;;;;;;;5007845;28;20057;-46
2022/10/25 09:11:29;;;;;;;7.43;2.05;;;;;;;;;;5006852;28;20061;-48
2022/10/25 09:14:01;;;;;;;5.70;2.22;;;;;;;;;;5007006;28;20046;-47
2022/10/25 09:16:34;;;;;;;5.47;2.20;;;;;;;;;;5015279;28;20050;-47
2022/10/25 09:19:05;;;;;;;5.75;2.00;;;;;;;;;;5014118;28;20073;-47
2022/10/25 09:21:39;;;;;;;9.60;2.13;;;;;;;;;;5009450;28;20050;-47
2022/10/25 09:24:13;;;;;;;6.63;2.00;;;;;;;;;;5012008;28;20113;-46
2022/10/25 09:26:43;;;;;;;5.90;1.95;;;;;;;;;;5009685;28;20664;-46
2022/10/25 09:29:18;;;;;;;4.57;1.80;;;;;;;;;;5013307;28;20156;-47
2022/10/25 09:31:49;;;;;;;4.80;2.00;;;;;;;;;;5001935;28;20443;-47
2022/10/25 09:34:18;;;;;;;6.80;2.25;;;;;;;;;;5005054;28;20089;-48
2022/10/25 09:36:46;;;;;;;14.18;3.70;;;;;;;;;;5018136;28;20175;-47
2022/10/25 09:39:32;;;;;;;5.97;2.20;;;;;;;;;;5018103;28;20108;-48
2022/10/25 09:42:00;;;;;;;8.40;2.75;;;;;;;;;;5007005;28;20060;-48
2022/10/25 09:44:37;;;;;;;5.10;1.90;;;;;;;;;;5003423;28;20058;-47
2022/10/25 09:47:19;;;;;;;6.75;2.47;;;;;;;;;;5007966;28;20481;-47
2022/10/25 09:49:51;;;;;;;3.97;1.73;;;;;;;;;;5011751;28;20050;-48
2022/10/25 09:52:22;;;;;;;12.00;2.35;;;;;;;;;;5001601;28;20070;-47
2022/10/25 09:54:56;;;;;;;11.98;2.17;;;;;;;;;;5013158;28;20068;-46
2022/10/25 09:57:23;;;;;;;6.10;2.20;;;;;;;;;;5012941;28;20054;-47
2022/10/25 09:59:51;;;;;;;5.28;2.13;;;;;;;;;;5007474;28;20061;-48
2022/10/25 10:02:22;;;;;;;4.85;2.25;;;;;;;;;;5009802;28;20332;-48
2022/10/25 10:04:53;;;;;;;9.38;2.88;;;;;;;;;;5016401;28;20097;-48
2022/10/25 10:07:24;;;;;;;5.10;2.47;;;;;;;;;;5014154;28;20057;-48
2022/10/25 10:09:59;;;;;;;5.75;1.90;;;;;;;;;;5008956;28;20054;-48
2022/10/25 10:12:30;;;;;;;7.55;2.28;;;;;;;;;;5008042;28;20073;-48
2022/10/25 10:15:01;;;;;;;7.50;2.35;;;;;;;;;;5004552;28;20451;-48
2022/10/25 10:17:29;;;;;;;5.13;1.75;;;;;;;;;;5008232;28;20046;-47
2022/10/25 10:20:10;;;;;;;4.05;1.80;;;;;;;;;;5001697;28;20061;-45
2022/10/25 10:22:37;;;;;;;10.98;2.63;;;;;;;;;;5007694;28;20060;-47
2022/10/25 10:25:22;;;;;;;6.20;1.95;;;;;;;;;;5002021;28;20054;-48
2022/10/25 10:27:59;;;;;;;6.53;1.80;;;;;;;;;;5014233;28;20053;-47
2022/10/25 10:33:22;;;;;;;5.32;1.50;;;;;;;;;;5004314;28;20057;-47
2022/10/25 10:35:53;;;;;;;5.93;1.50;;;;;;;;;;5014068;28;20068;-48
2022/10/25 10:38:29;;;;;;;6.78;1.90;;;;;;;;;;5013804;28;20140;-48
2022/10/25 10:41:15;;;;;;;11.60;2.75;;;;;;;;;;5008178;28;20472;-48
2022/10/25 10:43:45;;;;;;;7.38;2.60;;;;;;;;;;5012153;28;20165;-47
2022/10/25 10:46:23;;;;;;;4.75;2.00;;;;;;;;;;5001484;28;20110;-48
2022/10/25 10:48:54;;;;;;;4.70;1.98;;;;;;;;;;5008136;28;20050;-48
2022/10/25 10:51:23;;;;;;;6.47;2.25;;;;;;;;;;5008272;28;20053;-48
2022/10/25 10:53:53;;;;;;;7.10;2.75;;;;;;;;;;5013212;28;20056;-48
2022/10/25 10:56:29;;;;;;;7.47;2.60;;;;;;;;;;5007767;28;20221;-47
2022/10/25 10:58:58;;;;;;;6.03;2.17;;;;;;;;;;5012149;28;20050;-46
2022/10/25 11:01:33;;;;;;;4.63;2.15;;;;;;;;;;5021260;28;20050;-47
2022/10/25 11:03:59;;;;;;;;;;;;;;;;;;5007170;28;20054;-46
2022/10/25 11:06:35;;;;;;;5.53;1.65;;;;;;;;;;5012974;28;19925;-47
2022/10/25 11:09:20;;;;;;;5.25;2.13;;;;;;;;;;5004556;28;20057;-47
2022/10/25 11:12:07;;;;;;;8.15;2.65;;;;;;;;;;5004272;28;20050;-45
2022/10/25 11:14:35;;;;;;;6.50;2.55;;;;;;;;;;5015040;28;20080;-46
2022/10/25 11:19:58;;;;;;;11.85;2.97;;;;;;;;;;4998320;28;20046;-46
2022/10/25 11:22:33;;;;;;;6.10;2.47;;;;;;;;;;5007187;28;20065;-47
2022/10/25 11:25:09;;;;;;;6.68;2.45;;;;;;;;;;5001514;28;20490;-47
2022/10/25 11:27:43;;;;;;;6.65;2.47;;;;;;;;;;5008058;28;20042;-49
2022/10/25 11:30:21;;;;;;;6.20;2.83;;;;;;;;;;5014267;28;20058;-47
2022/10/25 11:33:08;;;;;;;4.75;2.50;;;;;;;;;;4999848;28;20050;-47
2022/10/25 11:36:00;;;;;;;8.93;2.70;;;;;;;;;;4997814;28;20043;-50
2022/10/25 11:38:36;;;;;;;8.30;2.20;;;;;;;;;;5009134;28;20078;-48
2022/10/25 11:41:06;;;;;;;6.13;2.20;;;;;;;;;;5011658;28;20545;-47
2022/10/25 11:43:50;;;;;;;5.78;1.70;;;;;;;;;;5009180;28;20046;-48
2022/10/25 11:46:23;;;;;;;5.00;1.65;;;;;;;;;;5006715;28;20060;-48
2022/10/25 11:48:57;;;;;;;6.00;2.05;;;;;;;;;;5004755;28;20471;-49
2022/10/25 11:51:31;;;;;;;5.32;1.55;;;;;;;;;;5010240;28;20145;-48
2022/10/25 11:54:12;;;;;;;5.35;1.60;;;;;;;;;;5005051;28;20049;-48
2022/10/25 11:56:43;;;;;;;2.97;1.35;;;;;;;;;;5010647;28;20475;-48
2022/10/25 11:59:21;;;;;;;3.88;1.70;;;;;;;;;;5009740;28;20161;-48
2022/10/25 12:02:03;;;;;;;6.07;1.67;;;;;;;;;;5001939;28;20053;-48
2022/10/25 12:04:40;;;;;;;8.50;1.50;;;;;;;;;;5009222;28;20053;-48
2022/10/25 12:07:11;;;;;;;8.25;1.45;;;;;;;;;;5007536;28;20046;-47
2022/10/25 12:10:03;;;;;;;4.43;1.60;;;;;;;;;;5011445;28;20049;-48
2022/10/25 12:12:47;;;;;;;8.02;1.52;;;;;;;;;;5010164;28;20056;-48
2022/10/25 12:15:22;;;;;;;3.33;1.35;;;;;;;;;;5011613;28;20054;-48
2022/10/25 12:17:52;;;;;;;6.43;1.23;;;;;;;;;;5008865;28;20054;-48
2022/10/25 12:20:22;;;;;;;4.05;1.33;;;;;;;;;;5009534;28;20296;-47
2022/10/25 12:22:58;;;;;;;7.90;1.40;;;;;;;;;;5011431;28;20068;-48
2022/10/25 12:25:34;;;;;;;5.10;1.33;;;;;;;;;;5011696;28;20046;-48
2022/10/25 12:28:05;;;;;;;4.32;1.40;;;;;;;;;;5011912;28;20049;-48
2022/10/25 12:30:45;;;;;;;2.00;0.98;;;;;;;;;;5011304;28;20105;-48
2022/10/25 12:33:17;;;;;;;5.18;1.40;;;;;;;;;;4998838;28;20049;-48
2022/10/25 12:35:48;;;;;;;3.42;0.90;;;;;;;;;;5018226;28;20045;-48
2022/10/25 12:38:26;;;;;;;4.40;1.80;;;;;;;;;;4996356;28;20050;-48
2022/10/25 12:40:57;;;;;;;3.63;1.30;;;;;;;;;;5018722;28;20053;-48
2022/10/25 12:43:30;;;;;;;5.00;1.60;;;;;;;;;;5019932;28;20381;-49
2022/10/25 12:46:10;;;;;;;9.13;2.08;;;;;;;;;;5012379;28;20684;-47
2022/10/25 12:48:54;;;;;;;2.83;1.40;;;;;;;;;;5004829;28;20073;-51
2022/10/25 12:51:43;;;;;;;5.47;1.40;;;;;;;;;;5006314;28;20053;-49
2022/10/25 12:54:23;;;;;;;8.18;1.45;;;;;;;;;;5002897;28;20374;-47
2022/10/25 12:56:57;;;;;;;4.78;1.42;;;;;;;;;;5006530;28;20076;-47
2022/10/25 12:59:34;;;;;;;2.17;0.90;;;;;;;;;;5012124;28;20054;-52
2022/10/25 13:02:18;;;;;;;9.32;1.45;;;;;;;;;;5011635;28;20502;-49
2022/10/25 13:05:00;;;;;;;7.25;1.08;;;;;;;;;;5011172;28;20382;-49
2022/10/25 13:07:30;;;;;;;11.57;2.00;;;;;;;;;;5014169;28;20056;-50
2022/10/25 13:10:27;;;;;;;12.02;1.23;;;;;;;;;;5011579;28;20478;-51
2022/10/25 13:13:02;;;;;;;5.15;1.20;;;;;;;;;;5004517;28;20053;-48
2022/10/25 13:15:38;;;;;;;6.40;2.15;;;;;;;;;;5006813;28;20060;-49
2022/10/25 13:18:24;;;;;;;3.00;1.20;;;;;;;;;;5008657;28;20049;-49
2022/10/25 13:20:54;;;;;;;3.90;1.08;;;;;;;;;;4998071;28;20062;-48
2022/10/25 13:23:44;;;;;;;5.43;1.13;;;;;;;;;;5002020;28;20054;-49
2022/10/25 13:26:24;;;;;;;5.18;1.20;;;;;;;;;;5011609;28;20056;-48
2022/10/25 13:28:55;;;;;;;2.97;1.13;;;;;;;;;;5007707;28;20471;-48
2022/10/25 13:31:56;;;;;;;4.60;1.23;;;;;;;;;;5002012;28;20359;-48
2022/10/25 13:34:38;;;;;;;5.70;1.63;;;;;;;;;;4951365;28;20101;-47
2022/10/25 13:37:32;;;;;;;7.50;1.48;;;;;;;;;;4944387;28;20056;-46
2022/10/25 13:40:08;;;;;;;7.80;2.00;;;;;;;;;;4958563;28;20057;-47
2022/10/25 13:42:36;;;;;;;6.13;1.50;;;;;;;;;;4946492;29;20051;-48
2022/10/25 13:45:08;;;;;;;6.28;1.65;;;;;;;;;;4945699;28;20047;-45
2022/10/25 13:47:36;;;;;;;7.53;1.92;;;;;;;;;;4953644;28;20066;-48
2022/10/25 13:50:25;;;;;;;6.45;1.60;;;;;;;;;;4951201;29;20055;-48
2022/10/25 13:53:05;;;;;;;6.93;1.52;;;;;;;;;;4957029;28;20515;-49
2022/10/25 13:55:37;;;;;;;8.02;1.55;;;;;;;;;;4942773;29;20051;-46
2022/10/25 13:58:23;;;;;;;5.93;2.00;;;;;;;;;;4943890;29;20449;-46
2022/10/25 14:00:53;;;;;;;8.93;1.95;;;;;;;;;;4953675;28;20491;-45
2022/10/25 14:03:46;;;;;;;5.80;1.73;;;;;;;;;;4949272;29;20552;-45
2022/10/25 14:06:26;;;;;;;4.25;1.38;;;;;;;;;;5006255;28;20053;-47
2022/10/25 14:09:07;;;;;;;12.75;2.33;;;;;;;;;;5012664;28;20037;-46
2022/10/25 14:11:38;;;;;;;8.85;2.17;;;;;;;;;;5016751;28;20058;-47
2022/10/25 14:14:23;;;;;;;4.18;1.30;;;;;;;;;;5013943;28;20085;-46
2022/10/25 14:17:01;;;;;;;6.75;2.17;;;;;;;;;;5016435;28;20057;-47
2022/10/25 14:19:37;;;;;;;6.68;1.80;;;;;;;;;;5005930;28;20046;-46
2022/10/25 14:22:14;;;;;;;7.50;1.83;;;;;;;;;;5006524;28;20061;-47
2022/10/25 14:24:55;;;;;;;9.52;2.40;;;;;;;;;;5014066;28;20469;-46
2022/10/25 14:27:35;;;;;;;5.68;1.63;;;;;;;;;;5019698;28;20057;-46
2022/10/25 14:30:14;;;;;;;4.63;1.77;;;;;;;;;;5006070;28;20046;-46
2022/10/25 14:32:49;;;;;;;7.18;1.92;;;;;;;;;;5009190;28;20061;-48
2022/10/25 14:35:19;;;;;;;2.53;1.42;;;;;;;;;;5013654;28;20142;-47
2022/10/25 14:37:50;;;;;;;3.65;1.40;;;;;;;;;;5012704;28;20124;-50
2022/10/25 14:40:34;;;;;;;3.97;1.58;;;;;;;;;;5014142;28;20053;-47
2022/10/25 14:43:28;;;;;;;8.70;1.80;;;;;;;;;;4997879;28;20357;-47
2022/10/25 14:45:57;;;;;;;8.52;1.63;;;;;;;;;;4989855;28;20065;-47
2022/10/25 14:48:25;;;;;;;4.35;1.52;;;;;;;;;;5004284;28;20054;-47
2022/10/25 14:50:54;;;;;;;10.10;1.90;;;;;;;;;;5005563;28;20057;-50
2022/10/25 14:53:25;;;;;;;10.38;2.35;;;;;;;;;;5003947;28;20053;-47
2022/10/25 14:55:55;;;;;;;9.63;2.78;;;;;;;;;;5000616;28;20050;-47
2022/10/25 14:58:26;;;;;;;6.72;2.20;;;;;;;;;;5014006;28;20057;-48
2022/10/25 15:00:56;;;;;;;6.82;2.65;;;;;;;;;;5003638;28;20085;-46
2022/10/25 15:03:25;;;;;;;6.65;2.30;;;;;;;;;;5003244;28;20065;-46
2022/10/25 15:05:56;;;;;;;5.38;1.85;;;;;;;;;;5010454;28;20050;-47
2022/10/25 15:08:33;;;;;;;6.78;1.80;;;;;;;;;;5011812;28;20426;-47
2022/10/25 15:11:08;;;;;;;8.13;2.05;;;;;;;;;;5005114;28;20050;-47
2022/10/25 15:13:40;;;;;;;6.30;2.47;;;;;;;;;;5012934;28;20054;-47
2022/10/25 15:16:27;;;;;;;7.07;2.88;;;;;;;;;;5009716;28;20367;-48
2022/10/25 15:19:13;;;;;;;7.93;3.08;;;;;;;;;;5011763;28;20128;-47
2022/10/25 15:21:42;;;;;;;9.85;3.75;;;;;;;;;;5001664;28;20391;-47
2022/10/25 15:24:12;;;;;;;8.48;3.83;;;;;;;;;;5012689;28;20057;-47
2022/10/25 15:26:58;;;;;;;7.25;2.67;;;;;;;;;;5012331;28;20045;-47